sensor_id;sensor_type;location;lat;lon;timestamp;P1;durP1;ratioP1;P2;durP2;ratioP2
12840;SDS011;6487;48.626;12.486;2023-01-23T00:01:37;23.43;;;16.57;;
12840;SDS011;6487;48.626;12.486;2023-01-23T00:04:06;24.13;;;17.20;;
12840;SDS011;6487;48.626;12.486;2023-01-23T00:06:36;26.57;;;17.53;;
12840;SDS011;6487;48.626;12.486;2023-01-23T00:09:04;25.07;;;16.60;;
12840;SDS011;6487;48.626;12.486;2023-01-23T00:11:34;25.10;;;17.13;;
12840;SDS011;6487;48.626;12.486;2023-01-23T00:14:03;23.30;;;16.83;;
12840;SDS011;6487;48.626;12.486;2023-01-23T00:16:31;24.53;;;17.30;;
12840;SDS011;6487;48.626;12.486;2023-01-23T00:19:00;27.97;;;17.00;;
12840;SDS011;6487;48.626;12.486;2023-01-23T00:21:28;23.97;;;16.37;;
12840;SDS011;6487;48.626;12.486;2023-01-23T00:23:57;26.77;;;16.73;;
12840;SDS011;6487;48.626;12.486;2023-01-23T00:26:28;22.90;;;16.63;;
12840;SDS011;6487;48.626;12.486;2023-01-23T00:29:00;24.90;;;17.27;;
12840;SDS011;6487;48.626;12.486;2023-01-23T00:31:30;24.53;;;17.20;;
12840;SDS011;6487;48.626;12.486;2023-01-23T00:34:01;24.77;;;17.40;;
12840;SDS011;6487;48.626;12.486;2023-01-23T00:36:33;23.10;;;16.50;;
12840;SDS011;6487;48.626;12.486;2023-01-23T00:39:05;24.13;;;16.40;;
12840;SDS011;6487;48.626;12.486;2023-01-23T00:41:37;24.93;;;17.37;;
12840;SDS011;6487;48.626;12.486;2023-01-23T00:44:06;23.07;;;16.10;;
12840;SDS011;6487;48.626;12.486;2023-01-23T00:46:35;22.67;;;16.67;;
12840;SDS011;6487;48.626;12.486;2023-01-23T00:49:03;24.03;;;16.83;;
12840;SDS011;6487;48.626;12.486;2023-01-23T00:51:32;23.53;;;16.20;;
12840;SDS011;6487;48.626;12.486;2023-01-23T00:54:01;25.90;;;17.13;;
12840;SDS011;6487;48.626;12.486;2023-01-23T00:56:29;22.90;;;15.37;;
12840;SDS011;6487;48.626;12.486;2023-01-23T00:58:58;22.00;;;16.30;;
12840;SDS011;6487;48.626;12.486;2023-01-23T01:01:27;26.37;;;17.67;;
12840;SDS011;6487;48.626;12.486;2023-01-23T01:03:57;22.70;;;16.30;;
12840;SDS011;6487;48.626;12.486;2023-01-23T01:06:26;23.20;;;15.70;;
12840;SDS011;6487;48.626;12.486;2023-01-23T01:08:55;24.73;;;16.57;;
12840;SDS011;6487;48.626;12.486;2023-01-23T01:11:23;22.60;;;16.47;;
12840;SDS011;6487;48.626;12.486;2023-01-23T01:13:52;24.13;;;16.30;;
12840;SDS011;6487;48.626;12.486;2023-01-23T01:16:20;21.90;;;14.83;;
12840;SDS011;6487;48.626;12.486;2023-01-23T01:18:51;21.17;;;15.33;;
12840;SDS011;6487;48.626;12.486;2023-01-23T01:21:20;24.17;;;16.03;;
12840;SDS011;6487;48.626;12.486;2023-01-23T01:23:48;21.77;;;15.40;;
12840;SDS011;6487;48.626;12.486;2023-01-23T01:26:17;21.73;;;14.80;;
12840;SDS011;6487;48.626;12.486;2023-01-23T01:28:48;20.63;;;14.03;;
12840;SDS011;6487;48.626;12.486;2023-01-23T01:31:17;20.43;;;14.43;;
12840;SDS011;6487;48.626;12.486;2023-01-23T01:33:45;17.47;;;12.70;;
12840;SDS011;6487;48.626;12.486;2023-01-23T01:36:17;17.27;;;13.00;;
12840;SDS011;6487;48.626;12.486;2023-01-23T01:38:47;17.07;;;12.33;;
12840;SDS011;6487;48.626;12.486;2023-01-23T01:41:16;20.20;;;13.27;;
12840;SDS011;6487;48.626;12.486;2023-01-23T01:43:45;18.00;;;12.57;;
12840;SDS011;6487;48.626;12.486;2023-01-23T01:46:16;19.97;;;13.23;;
12840;SDS011;6487;48.626;12.486;2023-01-23T01:48:55;17.67;;;12.87;;
12840;SDS011;6487;48.626;12.486;2023-01-23T01:51:34;19.53;;;12.37;;
12840;SDS011;6487;48.626;12.486;2023-01-23T01:54:09;16.40;;;12.73;;
12840;SDS011;6487;48.626;12.486;2023-01-23T01:56:46;15.93;;;12.63;;
12840;SDS011;6487;48.626;12.486;2023-01-23T01:59:31;19.40;;;13.57;;
12840;SDS011;6487;48.626;12.486;2023-01-23T02:02:06;19.73;;;14.33;;
12840;SDS011;6487;48.626;12.486;2023-01-23T02:04:40;17.43;;;12.47;;
12840;SDS011;6487;48.626;12.486;2023-01-23T02:07:16;19.00;;;13.97;;
12840;SDS011;6487;48.626;12.486;2023-01-23T02:09:49;18.80;;;12.73;;
12840;SDS011;6487;48.626;12.486;2023-01-23T02:12:18;19.67;;;14.23;;
12840;SDS011;6487;48.626;12.486;2023-01-23T02:14:47;20.10;;;14.60;;
12840;SDS011;6487;48.626;12.486;2023-01-23T02:17:15;20.97;;;15.03;;
12840;SDS011;6487;48.626;12.486;2023-01-23T02:19:44;20.80;;;14.60;;
12840;SDS011;6487;48.626;12.486;2023-01-23T02:22:27;19.73;;;14.37;;
12840;SDS011;6487;48.626;12.486;2023-01-23T02:25:05;18.70;;;14.27;;
12840;SDS011;6487;48.626;12.486;2023-01-23T02:27:40;19.43;;;14.17;;
12840;SDS011;6487;48.626;12.486;2023-01-23T02:30:09;17.70;;;12.80;;
12840;SDS011;6487;48.626;12.486;2023-01-23T02:32:39;17.10;;;12.73;;
12840;SDS011;6487;48.626;12.486;2023-01-23T02:35:08;17.93;;;12.87;;
12840;SDS011;6487;48.626;12.486;2023-01-23T02:37:39;19.80;;;11.97;;
12840;SDS011;6487;48.626;12.486;2023-01-23T02:40:12;16.53;;;11.40;;
12840;SDS011;6487;48.626;12.486;2023-01-23T02:42:43;14.17;;;10.70;;
12840;SDS011;6487;48.626;12.486;2023-01-23T02:45:13;15.53;;;11.87;;
12840;SDS011;6487;48.626;12.486;2023-01-23T02:47:41;15.77;;;11.67;;
12840;SDS011;6487;48.626;12.486;2023-01-23T02:50:10;14.77;;;11.57;;
12840;SDS011;6487;48.626;12.486;2023-01-23T02:52:38;18.23;;;12.07;;
12840;SDS011;6487;48.626;12.486;2023-01-23T02:55:06;16.43;;;11.40;;
12840;SDS011;6487;48.626;12.486;2023-01-23T02:57:35;18.23;;;12.40;;
12840;SDS011;6487;48.626;12.486;2023-01-23T03:00:06;16.70;;;11.87;;
12840;SDS011;6487;48.626;12.486;2023-01-23T03:02:46;16.93;;;12.77;;
12840;SDS011;6487;48.626;12.486;2023-01-23T03:05:16;18.23;;;12.57;;
12840;SDS011;6487;48.626;12.486;2023-01-23T03:07:45;19.87;;;13.20;;
12840;SDS011;6487;48.626;12.486;2023-01-23T03:10:13;18.33;;;12.43;;
12840;SDS011;6487;48.626;12.486;2023-01-23T03:12:42;18.50;;;13.23;;
12840;SDS011;6487;48.626;12.486;2023-01-23T03:15:12;18.40;;;12.33;;
12840;SDS011;6487;48.626;12.486;2023-01-23T03:17:40;18.57;;;12.10;;
12840;SDS011;6487;48.626;12.486;2023-01-23T03:20:09;19.60;;;13.57;;
12840;SDS011;6487;48.626;12.486;2023-01-23T03:22:38;18.60;;;12.23;;
12840;SDS011;6487;48.626;12.486;2023-01-23T03:25:07;21.23;;;13.73;;
12840;SDS011;6487;48.626;12.486;2023-01-23T03:27:36;21.93;;;14.10;;
12840;SDS011;6487;48.626;12.486;2023-01-23T03:30:04;18.73;;;13.30;;
12840;SDS011;6487;48.626;12.486;2023-01-23T03:32:42;18.70;;;12.70;;
12840;SDS011;6487;48.626;12.486;2023-01-23T03:35:13;17.97;;;12.23;;
12840;SDS011;6487;48.626;12.486;2023-01-23T03:37:43;18.77;;;13.57;;
12840;SDS011;6487;48.626;12.486;2023-01-23T03:40:14;18.63;;;12.73;;
12840;SDS011;6487;48.626;12.486;2023-01-23T03:43:04;21.20;;;12.87;;
12840;SDS011;6487;48.626;12.486;2023-01-23T03:45:33;17.57;;;12.30;;
12840;SDS011;6487;48.626;12.486;2023-01-23T03:48:03;19.00;;;13.20;;
12840;SDS011;6487;48.626;12.486;2023-01-23T03:50:31;20.17;;;13.93;;
12840;SDS011;6487;48.626;12.486;2023-01-23T03:52:59;19.83;;;12.83;;
12840;SDS011;6487;48.626;12.486;2023-01-23T03:55:28;19.40;;;13.20;;
12840;SDS011;6487;48.626;12.486;2023-01-23T03:57:56;20.30;;;13.77;;
12840;SDS011;6487;48.626;12.486;2023-01-23T04:00:25;20.07;;;13.50;;
12840;SDS011;6487;48.626;12.486;2023-01-23T04:02:53;18.37;;;13.10;;
12840;SDS011;6487;48.626;12.486;2023-01-23T04:05:23;19.63;;;13.40;;
12840;SDS011;6487;48.626;12.486;2023-01-23T04:07:51;21.23;;;13.33;;
12840;SDS011;6487;48.626;12.486;2023-01-23T04:10:19;19.60;;;13.87;;
12840;SDS011;6487;48.626;12.486;2023-01-23T04:12:48;20.50;;;14.10;;
12840;SDS011;6487;48.626;12.486;2023-01-23T04:15:17;20.37;;;14.23;;
12840;SDS011;6487;48.626;12.486;2023-01-23T04:17:45;20.97;;;14.07;;
12840;SDS011;6487;48.626;12.486;2023-01-23T04:20:13;21.67;;;14.03;;
12840;SDS011;6487;48.626;12.486;2023-01-23T04:22:43;20.40;;;14.20;;
12840;SDS011;6487;48.626;12.486;2023-01-23T04:25:11;24.83;;;16.13;;
12840;SDS011;6487;48.626;12.486;2023-01-23T04:27:40;19.63;;;13.10;;
12840;SDS011;6487;48.626;12.486;2023-01-23T04:30:08;20.43;;;13.37;;
12840;SDS011;6487;48.626;12.486;2023-01-23T04:32:38;19.70;;;14.00;;
12840;SDS011;6487;48.626;12.486;2023-01-23T04:35:06;20.50;;;13.97;;
12840;SDS011;6487;48.626;12.486;2023-01-23T04:37:35;20.27;;;12.93;;
12840;SDS011;6487;48.626;12.486;2023-01-23T04:40:05;18.93;;;13.10;;
12840;SDS011;6487;48.626;12.486;2023-01-23T04:42:35;21.03;;;13.53;;
12840;SDS011;6487;48.626;12.486;2023-01-23T04:45:06;17.37;;;12.57;;
12840;SDS011;6487;48.626;12.486;2023-01-23T04:47:36;18.27;;;12.37;;
12840;SDS011;6487;48.626;12.486;2023-01-23T04:50:05;16.13;;;12.00;;
12840;SDS011;6487;48.626;12.486;2023-01-23T04:52:34;19.37;;;12.67;;
12840;SDS011;6487;48.626;12.486;2023-01-23T04:55:05;17.43;;;12.57;;
12840;SDS011;6487;48.626;12.486;2023-01-23T04:57:34;16.93;;;11.40;;
12840;SDS011;6487;48.626;12.486;2023-01-23T05:00:03;18.67;;;12.10;;
12840;SDS011;6487;48.626;12.486;2023-01-23T05:02:33;17.43;;;11.77;;
12840;SDS011;6487;48.626;12.486;2023-01-23T05:05:02;20.17;;;12.67;;
12840;SDS011;6487;48.626;12.486;2023-01-23T05:07:31;19.23;;;12.33;;
12840;SDS011;6487;48.626;12.486;2023-01-23T05:09:59;18.17;;;12.13;;
12840;SDS011;6487;48.626;12.486;2023-01-23T05:12:29;20.23;;;13.23;;
12840;SDS011;6487;48.626;12.486;2023-01-23T05:14:57;20.40;;;13.13;;
12840;SDS011;6487;48.626;12.486;2023-01-23T05:17:26;18.10;;;13.07;;
12840;SDS011;6487;48.626;12.486;2023-01-23T05:19:54;17.23;;;12.60;;
12840;SDS011;6487;48.626;12.486;2023-01-23T05:22:22;20.23;;;13.30;;
12840;SDS011;6487;48.626;12.486;2023-01-23T05:24:50;19.20;;;13.00;;
12840;SDS011;6487;48.626;12.486;2023-01-23T05:27:19;18.13;;;12.57;;
12840;SDS011;6487;48.626;12.486;2023-01-23T05:29:48;19.83;;;13.77;;
12840;SDS011;6487;48.626;12.486;2023-01-23T05:32:17;18.93;;;13.03;;
12840;SDS011;6487;48.626;12.486;2023-01-23T05:34:45;20.67;;;13.73;;
12840;SDS011;6487;48.626;12.486;2023-01-23T05:37:13;19.43;;;13.73;;
12840;SDS011;6487;48.626;12.486;2023-01-23T05:39:41;19.97;;;13.43;;
12840;SDS011;6487;48.626;12.486;2023-01-23T05:42:10;20.03;;;14.27;;
12840;SDS011;6487;48.626;12.486;2023-01-23T05:44:38;18.33;;;12.57;;
12840;SDS011;6487;48.626;12.486;2023-01-23T05:47:08;19.07;;;13.70;;
12840;SDS011;6487;48.626;12.486;2023-01-23T05:49:36;18.63;;;12.90;;
12840;SDS011;6487;48.626;12.486;2023-01-23T05:52:04;18.30;;;13.10;;
12840;SDS011;6487;48.626;12.486;2023-01-23T05:54:33;19.97;;;13.37;;
12840;SDS011;6487;48.626;12.486;2023-01-23T05:57:01;17.87;;;12.57;;
12840;SDS011;6487;48.626;12.486;2023-01-23T05:59:29;20.33;;;13.83;;
12840;SDS011;6487;48.626;12.486;2023-01-23T06:01:58;22.47;;;14.60;;
12840;SDS011;6487;48.626;12.486;2023-01-23T06:04:27;22.30;;;13.27;;
12840;SDS011;6487;48.626;12.486;2023-01-23T06:06:56;18.57;;;13.07;;
12840;SDS011;6487;48.626;12.486;2023-01-23T06:09:24;18.17;;;11.70;;
12840;SDS011;6487;48.626;12.486;2023-01-23T06:11:52;19.87;;;12.90;;
12840;SDS011;6487;48.626;12.486;2023-01-23T06:14:20;22.83;;;13.30;;
12840;SDS011;6487;48.626;12.486;2023-01-23T06:16:49;22.33;;;14.03;;
12840;SDS011;6487;48.626;12.486;2023-01-23T06:19:17;20.43;;;13.07;;
12840;SDS011;6487;48.626;12.486;2023-01-23T06:21:47;22.17;;;13.63;;
12840;SDS011;6487;48.626;12.486;2023-01-23T06:24:15;19.97;;;13.13;;
12840;SDS011;6487;48.626;12.486;2023-01-23T06:26:43;19.40;;;13.67;;
12840;SDS011;6487;48.626;12.486;2023-01-23T06:29:12;22.07;;;13.63;;
12840;SDS011;6487;48.626;12.486;2023-01-23T06:31:40;17.97;;;12.13;;
12840;SDS011;6487;48.626;12.486;2023-01-23T06:34:09;21.13;;;14.10;;
12840;SDS011;6487;48.626;12.486;2023-01-23T06:36:37;20.13;;;13.17;;
12840;SDS011;6487;48.626;12.486;2023-01-23T06:39:07;19.73;;;13.07;;
12840;SDS011;6487;48.626;12.486;2023-01-23T06:41:41;21.20;;;13.93;;
12840;SDS011;6487;48.626;12.486;2023-01-23T06:44:09;21.87;;;14.43;;
12840;SDS011;6487;48.626;12.486;2023-01-23T06:46:38;19.43;;;13.40;;
12840;SDS011;6487;48.626;12.486;2023-01-23T06:49:06;20.40;;;13.77;;
12840;SDS011;6487;48.626;12.486;2023-01-23T06:51:35;20.30;;;13.40;;
12840;SDS011;6487;48.626;12.486;2023-01-23T06:54:04;21.97;;;13.40;;
12840;SDS011;6487;48.626;12.486;2023-01-23T06:56:34;21.53;;;15.73;;
12840;SDS011;6487;48.626;12.486;2023-01-23T06:59:02;17.73;;;13.17;;
12840;SDS011;6487;48.626;12.486;2023-01-23T07:01:30;23.50;;;14.77;;
12840;SDS011;6487;48.626;12.486;2023-01-23T07:03:59;22.73;;;12.73;;
12840;SDS011;6487;48.626;12.486;2023-01-23T07:06:28;22.13;;;13.80;;
12840;SDS011;6487;48.626;12.486;2023-01-23T07:08:57;20.83;;;14.13;;
12840;SDS011;6487;48.626;12.486;2023-01-23T07:11:25;26.13;;;14.77;;
12840;SDS011;6487;48.626;12.486;2023-01-23T07:13:55;20.53;;;13.67;;
12840;SDS011;6487;48.626;12.486;2023-01-23T07:16:24;22.50;;;13.83;;
12840;SDS011;6487;48.626;12.486;2023-01-23T07:18:52;20.37;;;13.70;;
12840;SDS011;6487;48.626;12.486;2023-01-23T07:21:24;20.43;;;14.23;;
12840;SDS011;6487;48.626;12.486;2023-01-23T07:23:52;21.63;;;14.93;;
12840;SDS011;6487;48.626;12.486;2023-01-23T07:26:20;20.33;;;13.40;;
12840;SDS011;6487;48.626;12.486;2023-01-23T07:28:48;25.37;;;15.90;;
12840;SDS011;6487;48.626;12.486;2023-01-23T07:31:18;25.60;;;15.53;;
12840;SDS011;6487;48.626;12.486;2023-01-23T07:33:47;24.00;;;14.93;;
12840;SDS011;6487;48.626;12.486;2023-01-23T07:36:15;25.13;;;15.87;;
12840;SDS011;6487;48.626;12.486;2023-01-23T07:38:44;23.93;;;15.57;;
12840;SDS011;6487;48.626;12.486;2023-01-23T07:41:13;22.57;;;14.83;;
12840;SDS011;6487;48.626;12.486;2023-01-23T07:43:41;25.53;;;15.30;;
12840;SDS011;6487;48.626;12.486;2023-01-23T07:46:09;23.73;;;15.73;;
12840;SDS011;6487;48.626;12.486;2023-01-23T07:48:39;24.47;;;15.50;;
12840;SDS011;6487;48.626;12.486;2023-01-23T07:51:07;22.83;;;14.63;;
12840;SDS011;6487;48.626;12.486;2023-01-23T07:53:37;25.17;;;15.80;;
12840;SDS011;6487;48.626;12.486;2023-01-23T07:56:05;21.37;;;14.90;;
12840;SDS011;6487;48.626;12.486;2023-01-23T07:58:34;25.67;;;15.37;;
12840;SDS011;6487;48.626;12.486;2023-01-23T08:01:06;22.37;;;15.03;;
12840;SDS011;6487;48.626;12.486;2023-01-23T08:03:35;22.20;;;14.57;;
12840;SDS011;6487;48.626;12.486;2023-01-23T08:06:05;23.47;;;15.33;;
12840;SDS011;6487;48.626;12.486;2023-01-23T08:08:34;24.27;;;14.40;;
12840;SDS011;6487;48.626;12.486;2023-01-23T08:11:03;22.10;;;14.57;;
12840;SDS011;6487;48.626;12.486;2023-01-23T08:13:31;24.20;;;14.70;;
12840;SDS011;6487;48.626;12.486;2023-01-23T08:16:00;22.17;;;15.30;;
12840;SDS011;6487;48.626;12.486;2023-01-23T08:18:29;24.17;;;15.87;;
12840;SDS011;6487;48.626;12.486;2023-01-23T08:20:58;24.93;;;16.07;;
12840;SDS011;6487;48.626;12.486;2023-01-23T08:23:31;27.17;;;17.30;;
12840;SDS011;6487;48.626;12.486;2023-01-23T08:26:02;26.20;;;15.87;;
12840;SDS011;6487;48.626;12.486;2023-01-23T08:28:32;27.20;;;14.77;;
12840;SDS011;6487;48.626;12.486;2023-01-23T08:31:01;20.77;;;13.67;;
12840;SDS011;6487;48.626;12.486;2023-01-23T08:33:33;21.00;;;14.13;;
12840;SDS011;6487;48.626;12.486;2023-01-23T08:36:03;24.40;;;15.57;;
12840;SDS011;6487;48.626;12.486;2023-01-23T08:38:37;21.67;;;14.63;;
12840;SDS011;6487;48.626;12.486;2023-01-23T08:41:06;20.33;;;13.67;;
12840;SDS011;6487;48.626;12.486;2023-01-23T08:43:37;24.47;;;15.87;;
12840;SDS011;6487;48.626;12.486;2023-01-23T08:46:07;23.90;;;15.90;;
12840;SDS011;6487;48.626;12.486;2023-01-23T08:48:36;24.37;;;14.27;;
12840;SDS011;6487;48.626;12.486;2023-01-23T08:51:05;20.63;;;13.80;;
12840;SDS011;6487;48.626;12.486;2023-01-23T08:53:39;24.37;;;15.50;;
12840;SDS011;6487;48.626;12.486;2023-01-23T08:56:09;23.40;;;14.83;;
12840;SDS011;6487;48.626;12.486;2023-01-23T08:58:42;21.03;;;14.53;;
12840;SDS011;6487;48.626;12.486;2023-01-23T09:01:11;22.87;;;15.53;;
12840;SDS011;6487;48.626;12.486;2023-01-23T09:03:40;27.37;;;17.27;;
12840;SDS011;6487;48.626;12.486;2023-01-23T09:06:09;24.97;;;15.77;;
12840;SDS011;6487;48.626;12.486;2023-01-23T09:08:40;24.87;;;14.80;;
12840;SDS011;6487;48.626;12.486;2023-01-23T09:11:09;20.47;;;13.57;;
12840;SDS011;6487;48.626;12.486;2023-01-23T09:13:39;22.57;;;15.60;;
12840;SDS011;6487;48.626;12.486;2023-01-23T09:16:07;23.13;;;16.17;;
12840;SDS011;6487;48.626;12.486;2023-01-23T09:18:36;27.67;;;17.77;;
12840;SDS011;6487;48.626;12.486;2023-01-23T09:21:05;31.43;;;18.00;;
12840;SDS011;6487;48.626;12.486;2023-01-23T09:23:35;27.10;;;18.13;;
12840;SDS011;6487;48.626;12.486;2023-01-23T09:26:05;31.73;;;21.77;;
12840;SDS011;6487;48.626;12.486;2023-01-23T09:28:38;25.07;;;17.27;;
12840;SDS011;6487;48.626;12.486;2023-01-23T09:31:08;25.93;;;16.63;;
12840;SDS011;6487;48.626;12.486;2023-01-23T09:33:39;24.30;;;16.43;;
12840;SDS011;6487;48.626;12.486;2023-01-23T09:36:08;25.50;;;16.50;;
12840;SDS011;6487;48.626;12.486;2023-01-23T09:38:37;21.67;;;15.97;;
12840;SDS011;6487;48.626;12.486;2023-01-23T09:41:12;25.83;;;17.60;;
12840;SDS011;6487;48.626;12.486;2023-01-23T09:43:48;24.97;;;15.33;;
12840;SDS011;6487;48.626;12.486;2023-01-23T09:46:24;24.10;;;16.07;;
12840;SDS011;6487;48.626;12.486;2023-01-23T09:48:58;23.47;;;16.23;;
12840;SDS011;6487;48.626;12.486;2023-01-23T09:51:32;26.80;;;18.03;;
12840;SDS011;6487;48.626;12.486;2023-01-23T09:54:14;23.80;;;15.23;;
12840;SDS011;6487;48.626;12.486;2023-01-23T09:56:58;24.23;;;16.60;;
12840;SDS011;6487;48.626;12.486;2023-01-23T09:59:34;23.13;;;15.87;;
12840;SDS011;6487;48.626;12.486;2023-01-23T10:02:23;24.80;;;15.27;;
12840;SDS011;6487;48.626;12.486;2023-01-23T10:04:52;25.17;;;16.17;;
12840;SDS011;6487;48.626;12.486;2023-01-23T10:07:29;23.47;;;15.20;;
12840;SDS011;6487;48.626;12.486;2023-01-23T10:10:20;22.13;;;14.17;;
12840;SDS011;6487;48.626;12.486;2023-01-23T10:13:09;22.20;;;14.43;;
12840;SDS011;6487;48.626;12.486;2023-01-23T10:15:50;24.13;;;15.17;;
12840;SDS011;6487;48.626;12.486;2023-01-23T10:19:15;22.17;;;14.90;;
12840;SDS011;6487;48.626;12.486;2023-01-23T10:21:59;23.33;;;14.73;;
12840;SDS011;6487;48.626;12.486;2023-01-23T10:24:36;23.93;;;15.23;;
12840;SDS011;6487;48.626;12.486;2023-01-23T10:27:14;20.60;;;13.53;;
12840;SDS011;6487;48.626;12.486;2023-01-23T10:29:49;22.37;;;14.40;;
12840;SDS011;6487;48.626;12.486;2023-01-23T10:32:24;23.93;;;15.27;;
12840;SDS011;6487;48.626;12.486;2023-01-23T10:34:56;23.90;;;15.57;;
12840;SDS011;6487;48.626;12.486;2023-01-23T10:37:32;20.83;;;14.67;;
12840;SDS011;6487;48.626;12.486;2023-01-23T10:40:11;25.80;;;16.37;;
12840;SDS011;6487;48.626;12.486;2023-01-23T10:42:41;22.77;;;16.27;;
12840;SDS011;6487;48.626;12.486;2023-01-23T10:45:14;21.07;;;14.67;;
12840;SDS011;6487;48.626;12.486;2023-01-23T10:47:48;23.23;;;16.40;;
12840;SDS011;6487;48.626;12.486;2023-01-23T10:50:32;21.30;;;14.67;;
12840;SDS011;6487;48.626;12.486;2023-01-23T10:53:05;23.23;;;14.87;;
12840;SDS011;6487;48.626;12.486;2023-01-23T10:55:38;25.40;;;16.43;;
12840;SDS011;6487;48.626;12.486;2023-01-23T10:58:20;23.10;;;15.77;;
12840;SDS011;6487;48.626;12.486;2023-01-23T11:00:57;26.27;;;16.73;;
12840;SDS011;6487;48.626;12.486;2023-01-23T11:03:28;22.47;;;15.70;;
12840;SDS011;6487;48.626;12.486;2023-01-23T11:06:02;24.83;;;16.03;;
12840;SDS011;6487;48.626;12.486;2023-01-23T11:08:33;22.93;;;15.83;;
12840;SDS011;6487;48.626;12.486;2023-01-23T11:11:20;25.13;;;16.67;;
12840;SDS011;6487;48.626;12.486;2023-01-23T11:14:01;24.67;;;16.90;;
12840;SDS011;6487;48.626;12.486;2023-01-23T11:16:35;31.90;;;21.03;;
12840;SDS011;6487;48.626;12.486;2023-01-23T11:19:09;32.80;;;21.57;;
12840;SDS011;6487;48.626;12.486;2023-01-23T11:21:54;24.53;;;17.13;;
12840;SDS011;6487;48.626;12.486;2023-01-23T11:24:31;23.60;;;16.97;;
12840;SDS011;6487;48.626;12.486;2023-01-23T11:27:14;19.43;;;15.20;;
12840;SDS011;6487;48.626;12.486;2023-01-23T11:32:56;20.47;;;14.93;;
12840;SDS011;6487;48.626;12.486;2023-01-23T11:35:32;19.03;;;14.80;;
12840;SDS011;6487;48.626;12.486;2023-01-23T11:38:15;21.10;;;15.93;;
12840;SDS011;6487;48.626;12.486;2023-01-23T11:40:56;22.30;;;16.00;;
12840;SDS011;6487;48.626;12.486;2023-01-23T11:43:24;21.00;;;15.80;;
12840;SDS011;6487;48.626;12.486;2023-01-23T11:46:09;21.17;;;15.47;;
12840;SDS011;6487;48.626;12.486;2023-01-23T11:49:02;21.97;;;17.20;;
12840;SDS011;6487;48.626;12.486;2023-01-23T11:51:49;20.87;;;15.83;;
12840;SDS011;6487;48.626;12.486;2023-01-23T11:54:51;20.00;;;14.90;;
12840;SDS011;6487;48.626;12.486;2023-01-23T11:57:38;23.53;;;16.30;;
12840;SDS011;6487;48.626;12.486;2023-01-23T12:00:21;19.77;;;14.87;;
12840;SDS011;6487;48.626;12.486;2023-01-23T12:06:13;21.47;;;16.33;;
12840;SDS011;6487;48.626;12.486;2023-01-23T12:09:09;21.90;;;15.33;;
12840;SDS011;6487;48.626;12.486;2023-01-23T12:11:47;21.73;;;17.47;;
12840;SDS011;6487;48.626;12.486;2023-01-23T12:14:33;25.07;;;17.83;;
12840;SDS011;6487;48.626;12.486;2023-01-23T12:17:15;28.23;;;21.47;;
12840;SDS011;6487;48.626;12.486;2023-01-23T12:22:58;20.03;;;15.90;;
12840;SDS011;6487;48.626;12.486;2023-01-23T12:25:40;23.33;;;17.20;;
12840;SDS011;6487;48.626;12.486;2023-01-23T12:28:16;27.60;;;19.87;;
12840;SDS011;6487;48.626;12.486;2023-01-23T12:31:05;23.27;;;17.57;;
12840;SDS011;6487;48.626;12.486;2023-01-23T12:33:55;24.03;;;17.30;;
12840;SDS011;6487;48.626;12.486;2023-01-23T12:36:53;30.87;;;23.23;;
12840;SDS011;6487;48.626;12.486;2023-01-23T12:40:01;25.77;;;19.10;;
12840;SDS011;6487;48.626;12.486;2023-01-23T12:42:39;26.67;;;21.27;;
12840;SDS011;6487;48.626;12.486;2023-01-23T12:45:17;28.30;;;22.90;;
12840;SDS011;6487;48.626;12.486;2023-01-23T12:47:54;22.80;;;15.03;;
12840;SDS011;6487;48.626;12.486;2023-01-23T12:50:33;21.70;;;15.07;;
12840;SDS011;6487;48.626;12.486;2023-01-23T12:53:09;20.00;;;14.47;;
12840;SDS011;6487;48.626;12.486;2023-01-23T12:55:42;19.70;;;14.57;;
12840;SDS011;6487;48.626;12.486;2023-01-23T12:58:21;19.07;;;13.90;;
12840;SDS011;6487;48.626;12.486;2023-01-23T13:00:59;19.03;;;15.20;;
12840;SDS011;6487;48.626;12.486;2023-01-23T13:03:43;21.57;;;13.60;;
12840;SDS011;6487;48.626;12.486;2023-01-23T13:06:49;20.47;;;14.30;;
12840;SDS011;6487;48.626;12.486;2023-01-23T13:09:35;19.33;;;14.83;;
12840;SDS011;6487;48.626;12.486;2023-01-23T13:12:18;19.77;;;14.00;;
12840;SDS011;6487;48.626;12.486;2023-01-23T13:14:49;22.23;;;14.47;;
12840;SDS011;6487;48.626;12.486;2023-01-23T13:17:40;26.27;;;17.40;;
12840;SDS011;6487;48.626;12.486;2023-01-23T13:20:24;38.77;;;23.50;;
12840;SDS011;6487;48.626;12.486;2023-01-23T13:23:22;29.27;;;18.70;;
12840;SDS011;6487;48.626;12.486;2023-01-23T13:28:59;22.60;;;16.07;;
12840;SDS011;6487;48.626;12.486;2023-01-23T13:31:34;20.50;;;15.83;;
12840;SDS011;6487;48.626;12.486;2023-01-23T13:40:18;18.03;;;14.23;;
12840;SDS011;6487;48.626;12.486;2023-01-23T13:42:49;20.63;;;14.07;;
12840;SDS011;6487;48.626;12.486;2023-01-23T13:45:20;27.70;;;18.50;;
12840;SDS011;6487;48.626;12.486;2023-01-23T13:48:12;25.57;;;17.83;;
12840;SDS011;6487;48.626;12.486;2023-01-23T13:51:44;25.47;;;17.03;;
12840;SDS011;6487;48.626;12.486;2023-01-23T13:54:27;31.23;;;20.83;;
12840;SDS011;6487;48.626;12.486;2023-01-23T13:57:29;24.23;;;17.03;;
12840;SDS011;6487;48.626;12.486;2023-01-23T14:00:12;21.13;;;15.77;;
12840;SDS011;6487;48.626;12.486;2023-01-23T14:03:01;21.63;;;16.80;;
12840;SDS011;6487;48.626;12.486;2023-01-23T14:06:30;36.10;;;23.67;;
12840;SDS011;6487;48.626;12.486;2023-01-23T14:15:56;29.70;;;19.53;;
12840;SDS011;6487;48.626;12.486;2023-01-23T14:18:51;29.93;;;19.90;;
12840;SDS011;6487;48.626;12.486;2023-01-23T14:21:35;24.37;;;15.83;;
12840;SDS011;6487;48.626;12.486;2023-01-23T14:24:18;19.93;;;14.83;;
12840;SDS011;6487;48.626;12.486;2023-01-23T14:26:50;19.53;;;14.87;;
12840;SDS011;6487;48.626;12.486;2023-01-23T14:29:29;24.13;;;16.17;;
12840;SDS011;6487;48.626;12.486;2023-01-23T14:31:58;19.63;;;14.03;;
12840;SDS011;6487;48.626;12.486;2023-01-23T14:34:27;34.80;;;24.07;;
12840;SDS011;6487;48.626;12.486;2023-01-23T14:36:57;25.70;;;18.60;;
12840;SDS011;6487;48.626;12.486;2023-01-23T14:39:31;24.20;;;17.57;;
12840;SDS011;6487;48.626;12.486;2023-01-23T14:42:02;25.33;;;17.33;;
12840;SDS011;6487;48.626;12.486;2023-01-23T14:44:42;21.37;;;15.60;;
12840;SDS011;6487;48.626;12.486;2023-01-23T14:47:14;28.30;;;21.03;;
12840;SDS011;6487;48.626;12.486;2023-01-23T14:49:51;30.53;;;21.57;;
12840;SDS011;6487;48.626;12.486;2023-01-23T14:52:20;23.97;;;17.40;;
12840;SDS011;6487;48.626;12.486;2023-01-23T14:54:51;26.30;;;19.73;;
12840;SDS011;6487;48.626;12.486;2023-01-23T14:57:22;24.90;;;17.77;;
12840;SDS011;6487;48.626;12.486;2023-01-23T14:59:52;21.13;;;15.53;;
12840;SDS011;6487;48.626;12.486;2023-01-23T15:02:24;23.03;;;16.00;;
12840;SDS011;6487;48.626;12.486;2023-01-23T15:05:06;21.67;;;16.03;;
12840;SDS011;6487;48.626;12.486;2023-01-23T15:07:43;24.20;;;16.77;;
12840;SDS011;6487;48.626;12.486;2023-01-23T15:10:16;20.63;;;15.80;;
12840;SDS011;6487;48.626;12.486;2023-01-23T15:12:48;20.97;;;15.70;;
12840;SDS011;6487;48.626;12.486;2023-01-23T15:15:20;20.37;;;14.97;;
12840;SDS011;6487;48.626;12.486;2023-01-23T15:17:51;21.97;;;15.53;;
12840;SDS011;6487;48.626;12.486;2023-01-23T15:20:29;23.43;;;17.50;;
12840;SDS011;6487;48.626;12.486;2023-01-23T15:23:19;20.40;;;14.77;;